sensor_id;sensor_type;location;lat;lon;timestamp;P1;durP1;ratioP1;P2;durP2;ratioP2
78027;SDS011;67235;45.638;11.714;2023-08-21T00:00:06;20.83;;;13.63;;
78027;SDS011;67235;45.638;11.714;2023-08-21T00:02:33;24.83;;;14.23;;
78027;SDS011;67235;45.638;11.714;2023-08-21T00:04:59;22.25;;;13.38;;
78027;SDS011;67235;45.638;11.714;2023-08-21T00:07:25;22.40;;;13.47;;
78027;SDS011;67235;45.638;11.714;2023-08-21T00:09:50;21.23;;;14.00;;
78027;SDS011;67235;45.638;11.714;2023-08-21T00:12:16;21.23;;;13.52;;
78027;SDS011;67235;45.638;11.714;2023-08-21T00:14:42;19.20;;;12.70;;
78027;SDS011;67235;45.638;11.714;2023-08-21T00:17:08;19.38;;;12.90;;
78027;SDS011;67235;45.638;11.714;2023-08-21T00:19:34;19.77;;;12.83;;
78027;SDS011;67235;45.638;11.714;2023-08-21T00:22:00;21.25;;;13.70;;
78027;SDS011;67235;45.638;11.714;2023-08-21T00:24:26;19.42;;;12.68;;
78027;SDS011;67235;45.638;11.714;2023-08-21T00:26:52;20.90;;;12.95;;
78027;SDS011;67235;45.638;11.714;2023-08-21T00:29:18;23.27;;;13.93;;
78027;SDS011;67235;45.638;11.714;2023-08-21T00:31:44;21.65;;;13.38;;
78027;SDS011;67235;45.638;11.714;2023-08-21T00:34:10;19.60;;;12.35;;
78027;SDS011;67235;45.638;11.714;2023-08-21T00:36:36;20.42;;;11.88;;
78027;SDS011;67235;45.638;11.714;2023-08-21T00:39:01;19.03;;;12.30;;
78027;SDS011;67235;45.638;11.714;2023-08-21T00:41:27;18.15;;;12.15;;
78027;SDS011;67235;45.638;11.714;2023-08-21T00:43:53;16.27;;;11.13;;
78027;SDS011;67235;45.638;11.714;2023-08-21T00:46:19;16.52;;;11.30;;
78027;SDS011;67235;45.638;11.714;2023-08-21T00:48:45;16.58;;;10.55;;
78027;SDS011;67235;45.638;11.714;2023-08-21T00:51:11;17.65;;;10.82;;
78027;SDS011;67235;45.638;11.714;2023-08-21T00:53:40;18.07;;;11.53;;
78027;SDS011;67235;45.638;11.714;2023-08-21T00:56:06;21.52;;;13.68;;
78027;SDS011;67235;45.638;11.714;2023-08-21T00:58:32;22.42;;;13.85;;
78027;SDS011;67235;45.638;11.714;2023-08-21T01:00:58;24.40;;;15.20;;
78027;SDS011;67235;45.638;11.714;2023-08-21T01:03:24;25.97;;;14.67;;
78027;SDS011;67235;45.638;11.714;2023-08-21T01:05:50;23.23;;;14.43;;
78027;SDS011;67235;45.638;11.714;2023-08-21T01:08:27;20.55;;;13.70;;
78027;SDS011;67235;45.638;11.714;2023-08-21T01:11:25;20.43;;;12.83;;
78027;SDS011;67235;45.638;11.714;2023-08-21T01:13:56;22.42;;;13.35;;
78027;SDS011;67235;45.638;11.714;2023-08-21T01:16:55;24.48;;;13.15;;
78027;SDS011;67235;45.638;11.714;2023-08-21T01:19:36;21.92;;;12.75;;
78027;SDS011;67235;45.638;11.714;2023-08-21T01:22:05;19.33;;;11.60;;
78027;SDS011;67235;45.638;11.714;2023-08-21T01:24:31;17.83;;;11.20;;
78027;SDS011;67235;45.638;11.714;2023-08-21T01:26:58;15.35;;;10.05;;
78027;SDS011;67235;45.638;11.714;2023-08-21T01:29:24;17.67;;;10.90;;
78027;SDS011;67235;45.638;11.714;2023-08-21T01:31:52;18.77;;;11.18;;
78027;SDS011;67235;45.638;11.714;2023-08-21T01:34:32;17.20;;;10.68;;
78027;SDS011;67235;45.638;11.714;2023-08-21T01:37:02;16.17;;;10.50;;
78027;SDS011;67235;45.638;11.714;2023-08-21T01:39:29;16.27;;;11.02;;
78027;SDS011;67235;45.638;11.714;2023-08-21T01:41:56;16.77;;;10.65;;
78027;SDS011;67235;45.638;11.714;2023-08-21T01:44:22;16.30;;;10.77;;
78027;SDS011;67235;45.638;11.714;2023-08-21T01:46:49;19.60;;;10.65;;
78027;SDS011;67235;45.638;11.714;2023-08-21T01:49:15;16.93;;;10.83;;
78027;SDS011;67235;45.638;11.714;2023-08-21T01:51:42;18.30;;;11.35;;
78027;SDS011;67235;45.638;11.714;2023-08-21T01:54:08;15.75;;;10.40;;
78027;SDS011;67235;45.638;11.714;2023-08-21T01:56:34;17.43;;;10.80;;
78027;SDS011;67235;45.638;11.714;2023-08-21T01:59:01;16.75;;;10.50;;
78027;SDS011;67235;45.638;11.714;2023-08-21T02:01:27;19.67;;;11.15;;
78027;SDS011;67235;45.638;11.714;2023-08-21T02:03:53;17.13;;;10.73;;
78027;SDS011;67235;45.638;11.714;2023-08-21T02:06:19;15.03;;;10.27;;
78027;SDS011;67235;45.638;11.714;2023-08-21T02:08:45;18.25;;;10.80;;
78027;SDS011;67235;45.638;11.714;2023-08-21T02:11:11;19.13;;;10.57;;
78027;SDS011;67235;45.638;11.714;2023-08-21T02:13:36;18.15;;;11.23;;
78027;SDS011;67235;45.638;11.714;2023-08-21T02:16:03;17.95;;;12.15;;
78027;SDS011;67235;45.638;11.714;2023-08-21T02:18:28;16.77;;;10.50;;
78027;SDS011;67235;45.638;11.714;2023-08-21T02:20:54;15.97;;;10.97;;
78027;SDS011;67235;45.638;11.714;2023-08-21T02:23:20;17.73;;;11.07;;
78027;SDS011;67235;45.638;11.714;2023-08-21T02:25:46;15.80;;;10.43;;
78027;SDS011;67235;45.638;11.714;2023-08-21T02:28:14;16.00;;;10.30;;
78027;SDS011;67235;45.638;11.714;2023-08-21T02:30:40;19.85;;;10.73;;
78027;SDS011;67235;45.638;11.714;2023-08-21T02:33:06;17.55;;;10.68;;
78027;SDS011;67235;45.638;11.714;2023-08-21T02:35:32;18.88;;;11.43;;
78027;SDS011;67235;45.638;11.714;2023-08-21T02:37:58;18.25;;;10.88;;
78027;SDS011;67235;45.638;11.714;2023-08-21T02:40:24;16.40;;;10.60;;
78027;SDS011;67235;45.638;11.714;2023-08-21T02:42:50;15.87;;;9.77;;
78027;SDS011;67235;45.638;11.714;2023-08-21T02:45:16;17.53;;;10.60;;
78027;SDS011;67235;45.638;11.714;2023-08-21T02:47:44;16.20;;;10.40;;
78027;SDS011;67235;45.638;11.714;2023-08-21T02:50:10;18.40;;;10.65;;
78027;SDS011;67235;45.638;11.714;2023-08-21T02:52:36;17.17;;;10.63;;
78027;SDS011;67235;45.638;11.714;2023-08-21T02:55:03;19.37;;;11.70;;
78027;SDS011;67235;45.638;11.714;2023-08-21T02:57:29;16.73;;;10.10;;
78027;SDS011;67235;45.638;11.714;2023-08-21T02:59:55;16.90;;;10.40;;
78027;SDS011;67235;45.638;11.714;2023-08-21T03:02:22;16.95;;;10.68;;
78027;SDS011;67235;45.638;11.714;2023-08-21T03:04:48;17.83;;;10.90;;
78027;SDS011;67235;45.638;11.714;2023-08-21T03:07:15;19.92;;;12.00;;
78027;SDS011;67235;45.638;11.714;2023-08-21T03:09:41;21.95;;;11.77;;
78027;SDS011;67235;45.638;11.714;2023-08-21T03:12:07;18.23;;;10.90;;
78027;SDS011;67235;45.638;11.714;2023-08-21T03:14:34;16.27;;;10.85;;
78027;SDS011;67235;45.638;11.714;2023-08-21T03:17:00;19.60;;;11.68;;
78027;SDS011;67235;45.638;11.714;2023-08-21T03:19:26;17.63;;;11.55;;
78027;SDS011;67235;45.638;11.714;2023-08-21T03:21:52;18.05;;;11.23;;
78027;SDS011;67235;45.638;11.714;2023-08-21T03:24:21;18.33;;;11.98;;
78027;SDS011;67235;45.638;11.714;2023-08-21T03:26:47;21.63;;;12.63;;
78027;SDS011;67235;45.638;11.714;2023-08-21T03:29:22;24.25;;;12.77;;
78027;SDS011;67235;45.638;11.714;2023-08-21T03:31:53;20.75;;;13.02;;
78027;SDS011;67235;45.638;11.714;2023-08-21T03:34:22;18.98;;;12.52;;
78027;SDS011;67235;45.638;11.714;2023-08-21T03:36:53;21.58;;;13.70;;
78027;SDS011;67235;45.638;11.714;2023-08-21T03:39:20;20.02;;;12.45;;
78027;SDS011;67235;45.638;11.714;2023-08-21T03:41:52;18.23;;;11.85;;
78027;SDS011;67235;45.638;11.714;2023-08-21T03:44:17;19.50;;;12.83;;
78027;SDS011;67235;45.638;11.714;2023-08-21T03:46:43;19.43;;;12.60;;
78027;SDS011;67235;45.638;11.714;2023-08-21T03:49:09;19.27;;;12.13;;
78027;SDS011;67235;45.638;11.714;2023-08-21T03:51:35;18.63;;;11.77;;
78027;SDS011;67235;45.638;11.714;2023-08-21T03:54:01;19.08;;;11.88;;
78027;SDS011;67235;45.638;11.714;2023-08-21T03:56:27;22.35;;;11.43;;
78027;SDS011;67235;45.638;11.714;2023-08-21T03:58:52;18.23;;;10.70;;
78027;SDS011;67235;45.638;11.714;2023-08-21T04:01:18;21.02;;;11.45;;
78027;SDS011;67235;45.638;11.714;2023-08-21T04:03:44;18.95;;;12.48;;
78027;SDS011;67235;45.638;11.714;2023-08-21T04:06:10;20.37;;;12.87;;
78027;SDS011;67235;45.638;11.714;2023-08-21T04:08:36;21.50;;;12.93;;
78027;SDS011;67235;45.638;11.714;2023-08-21T04:11:02;21.23;;;12.63;;
78027;SDS011;67235;45.638;11.714;2023-08-21T04:13:27;19.10;;;12.73;;
78027;SDS011;67235;45.638;11.714;2023-08-21T04:15:54;20.70;;;13.65;;
78027;SDS011;67235;45.638;11.714;2023-08-21T04:18:21;18.97;;;12.73;;
78027;SDS011;67235;45.638;11.714;2023-08-21T04:20:48;17.67;;;11.57;;
78027;SDS011;67235;45.638;11.714;2023-08-21T04:23:14;17.73;;;11.50;;
78027;SDS011;67235;45.638;11.714;2023-08-21T04:25:40;19.85;;;11.93;;
78027;SDS011;67235;45.638;11.714;2023-08-21T04:28:06;18.58;;;11.73;;
78027;SDS011;67235;45.638;11.714;2023-08-21T04:30:35;18.00;;;11.27;;
78027;SDS011;67235;45.638;11.714;2023-08-21T04:33:01;18.13;;;11.63;;
78027;SDS011;67235;45.638;11.714;2023-08-21T04:35:27;17.80;;;10.88;;
78027;SDS011;67235;45.638;11.714;2023-08-21T04:37:53;18.37;;;11.70;;
78027;SDS011;67235;45.638;11.714;2023-08-21T04:40:19;20.73;;;11.65;;
78027;SDS011;67235;45.638;11.714;2023-08-21T04:42:46;18.58;;;11.13;;
78027;SDS011;67235;45.638;11.714;2023-08-21T04:45:12;17.23;;;10.80;;
78027;SDS011;67235;45.638;11.714;2023-08-21T04:47:38;17.20;;;10.87;;
78027;SDS011;67235;45.638;11.714;2023-08-21T04:50:04;14.67;;;9.53;;
78027;SDS011;67235;45.638;11.714;2023-08-21T04:52:30;15.20;;;9.85;;
78027;SDS011;67235;45.638;11.714;2023-08-21T04:54:56;18.17;;;9.70;;
78027;SDS011;67235;45.638;11.714;2023-08-21T04:57:22;14.60;;;8.80;;
78027;SDS011;67235;45.638;11.714;2023-08-21T04:59:48;15.75;;;8.50;;
78027;SDS011;67235;45.638;11.714;2023-08-21T05:02:14;12.05;;;8.30;;
78027;SDS011;67235;45.638;11.714;2023-08-21T05:04:40;12.73;;;8.47;;
78027;SDS011;67235;45.638;11.714;2023-08-21T05:07:07;13.10;;;7.75;;
78027;SDS011;67235;45.638;11.714;2023-08-21T05:09:33;11.43;;;7.88;;
78027;SDS011;67235;45.638;11.714;2023-08-21T05:11:59;12.80;;;8.37;;
78027;SDS011;67235;45.638;11.714;2023-08-21T05:14:25;10.75;;;7.68;;
78027;SDS011;67235;45.638;11.714;2023-08-21T05:16:52;19.95;;;8.05;;
78027;SDS011;67235;45.638;11.714;2023-08-21T05:19:19;11.60;;;7.70;;
78027;SDS011;67235;45.638;11.714;2023-08-21T05:21:45;10.70;;;7.73;;
78027;SDS011;67235;45.638;11.714;2023-08-21T05:24:11;11.70;;;7.38;;
78027;SDS011;67235;45.638;11.714;2023-08-21T05:26:37;13.90;;;7.93;;
78027;SDS011;67235;45.638;11.714;2023-08-21T05:29:04;13.05;;;7.78;;
78027;SDS011;67235;45.638;11.714;2023-08-21T05:31:30;12.13;;;8.27;;
78027;SDS011;67235;45.638;11.714;2023-08-21T05:33:56;10.80;;;7.75;;
78027;SDS011;67235;45.638;11.714;2023-08-21T05:36:22;10.75;;;7.78;;
78027;SDS011;67235;45.638;11.714;2023-08-21T05:38:48;12.07;;;8.07;;
78027;SDS011;67235;45.638;11.714;2023-08-21T05:41:16;11.30;;;8.43;;
78027;SDS011;67235;45.638;11.714;2023-08-21T05:43:42;10.65;;;7.85;;
78027;SDS011;67235;45.638;11.714;2023-08-21T05:46:10;11.82;;;9.07;;
78027;SDS011;67235;45.638;11.714;2023-08-21T05:48:36;12.23;;;8.70;;
78027;SDS011;67235;45.638;11.714;2023-08-21T05:51:02;13.40;;;8.63;;
78027;SDS011;67235;45.638;11.714;2023-08-21T05:53:28;11.50;;;8.95;;
78027;SDS011;67235;45.638;11.714;2023-08-21T05:55:54;11.02;;;8.55;;
78027;SDS011;67235;45.638;11.714;2023-08-21T05:58:20;11.47;;;8.87;;
78027;SDS011;67235;45.638;11.714;2023-08-21T06:00:46;15.35;;;9.30;;
78027;SDS011;67235;45.638;11.714;2023-08-21T06:03:12;11.15;;;9.23;;
78027;SDS011;67235;45.638;11.714;2023-08-21T06:05:38;13.10;;;9.68;;
78027;SDS011;67235;45.638;11.714;2023-08-21T06:08:04;16.00;;;10.50;;
78027;SDS011;67235;45.638;11.714;2023-08-21T06:10:33;12.07;;;10.23;;
78027;SDS011;67235;45.638;11.714;2023-08-21T06:12:59;13.18;;;10.02;;
78027;SDS011;67235;45.638;11.714;2023-08-21T06:15:25;12.53;;;10.43;;
78027;SDS011;67235;45.638;11.714;2023-08-21T06:17:51;11.52;;;9.63;;
78027;SDS011;67235;45.638;11.714;2023-08-21T06:20:17;13.13;;;10.25;;
78027;SDS011;67235;45.638;11.714;2023-08-21T06:22:45;11.10;;;9.43;;
78027;SDS011;67235;45.638;11.714;2023-08-21T06:25:10;12.20;;;9.53;;
78027;SDS011;67235;45.638;11.714;2023-08-21T06:27:37;14.52;;;8.80;;
78027;SDS011;67235;45.638;11.714;2023-08-21T06:30:03;11.15;;;8.75;;
78027;SDS011;67235;45.638;11.714;2023-08-21T06:32:30;14.43;;;8.95;;
78027;SDS011;67235;45.638;11.714;2023-08-21T06:34:55;12.90;;;8.20;;
78027;SDS011;67235;45.638;11.714;2023-08-21T06:37:21;9.95;;;7.82;;
78027;SDS011;67235;45.638;11.714;2023-08-21T06:39:47;9.73;;;7.93;;
78027;SDS011;67235;45.638;11.714;2023-08-21T06:42:13;11.63;;;7.57;;
78027;SDS011;67235;45.638;11.714;2023-08-21T06:44:39;10.52;;;7.70;;
78027;SDS011;67235;45.638;11.714;2023-08-21T06:47:05;8.70;;;7.53;;
78027;SDS011;67235;45.638;11.714;2023-08-21T06:49:31;9.17;;;7.17;;
78027;SDS011;67235;45.638;11.714;2023-08-21T06:51:58;11.13;;;7.57;;
78027;SDS011;67235;45.638;11.714;2023-08-21T06:54:24;11.88;;;7.22;;
78027;SDS011;67235;45.638;11.714;2023-08-21T06:56:50;10.35;;;7.25;;
78027;SDS011;67235;45.638;11.714;2023-08-21T06:59:16;10.70;;;7.60;;
78027;SDS011;67235;45.638;11.714;2023-08-21T07:01:41;8.82;;;6.95;;
78027;SDS011;67235;45.638;11.714;2023-08-21T07:04:07;10.00;;;7.13;;
78027;SDS011;67235;45.638;11.714;2023-08-21T07:06:33;8.73;;;7.05;;
78027;SDS011;67235;45.638;11.714;2023-08-21T07:08:59;9.50;;;7.18;;
78027;SDS011;67235;45.638;11.714;2023-08-21T07:11:25;9.33;;;7.37;;
78027;SDS011;67235;45.638;11.714;2023-08-21T07:13:50;9.00;;;7.05;;
78027;SDS011;67235;45.638;11.714;2023-08-21T07:16:16;10.83;;;7.53;;
78027;SDS011;67235;45.638;11.714;2023-08-21T07:18:42;8.40;;;6.93;;
78027;SDS011;67235;45.638;11.714;2023-08-21T07:21:08;8.93;;;7.25;;
78027;SDS011;67235;45.638;11.714;2023-08-21T07:23:34;8.83;;;6.73;;
78027;SDS011;67235;45.638;11.714;2023-08-21T07:26:00;10.00;;;7.43;;
78027;SDS011;67235;45.638;11.714;2023-08-21T07:28:27;10.48;;;7.60;;
78027;SDS011;67235;45.638;11.714;2023-08-21T07:30:56;10.20;;;7.27;;
78027;SDS011;67235;45.638;11.714;2023-08-21T07:33:23;10.43;;;7.20;;
78027;SDS011;67235;45.638;11.714;2023-08-21T07:35:57;7.78;;;6.90;;
78027;SDS011;67235;45.638;11.714;2023-08-21T07:38:26;10.98;;;7.68;;
78027;SDS011;67235;45.638;11.714;2023-08-21T07:41:13;12.13;;;7.10;;
78027;SDS011;67235;45.638;11.714;2023-08-21T07:43:40;8.80;;;7.15;;
78027;SDS011;67235;45.638;11.714;2023-08-21T07:46:10;8.48;;;6.80;;
78027;SDS011;67235;45.638;11.714;2023-08-21T07:48:41;7.65;;;6.80;;
78027;SDS011;67235;45.638;11.714;2023-08-21T07:51:08;8.40;;;7.00;;
78027;SDS011;67235;45.638;11.714;2023-08-21T07:53:39;9.43;;;6.87;;
78027;SDS011;67235;45.638;11.714;2023-08-21T07:56:07;7.68;;;6.40;;
78027;SDS011;67235;45.638;11.714;2023-08-21T07:58:34;7.90;;;7.10;;
78027;SDS011;67235;45.638;11.714;2023-08-21T08:01:02;8.38;;;6.80;;
78027;SDS011;67235;45.638;11.714;2023-08-21T08:03:30;9.38;;;7.20;;
78027;SDS011;67235;45.638;11.714;2023-08-21T08:05:56;8.43;;;6.80;;
78027;SDS011;67235;45.638;11.714;2023-08-21T08:08:23;8.30;;;7.00;;
78027;SDS011;67235;45.638;11.714;2023-08-21T08:10:50;10.23;;;7.15;;
78027;SDS011;67235;45.638;11.714;2023-08-21T08:13:16;8.93;;;7.30;;
78027;SDS011;67235;45.638;11.714;2023-08-21T08:15:42;10.52;;;7.22;;
78027;SDS011;67235;45.638;11.714;2023-08-21T08:18:11;8.47;;;6.90;;
78027;SDS011;67235;45.638;11.714;2023-08-21T08:20:38;8.93;;;7.20;;
78027;SDS011;67235;45.638;11.714;2023-08-21T08:23:04;8.18;;;6.90;;
78027;SDS011;67235;45.638;11.714;2023-08-21T08:25:30;8.48;;;6.97;;
78027;SDS011;67235;45.638;11.714;2023-08-21T08:27:56;9.67;;;7.00;;
78027;SDS011;67235;45.638;11.714;2023-08-21T08:30:22;8.73;;;6.63;;
78027;SDS011;67235;45.638;11.714;2023-08-21T08:32:49;10.48;;;7.22;;
78027;SDS011;67235;45.638;11.714;2023-08-21T08:35:15;8.77;;;7.53;;
78027;SDS011;67235;45.638;11.714;2023-08-21T08:37:41;8.70;;;6.80;;
78027;SDS011;67235;45.638;11.714;2023-08-21T08:40:07;9.70;;;7.43;;
78027;SDS011;67235;45.638;11.714;2023-08-21T08:42:34;9.35;;;7.60;;
78027;SDS011;67235;45.638;11.714;2023-08-21T08:45:02;8.60;;;6.78;;
78027;SDS011;67235;45.638;11.714;2023-08-21T08:47:31;10.25;;;7.03;;
78027;SDS011;67235;45.638;11.714;2023-08-21T08:49:59;8.90;;;7.67;;
78027;SDS011;67235;45.638;11.714;2023-08-21T08:52:29;9.15;;;6.72;;
78027;SDS011;67235;45.638;11.714;2023-08-21T08:54:59;8.52;;;7.63;;
78027;SDS011;67235;45.638;11.714;2023-08-21T08:57:25;8.30;;;7.00;;
78027;SDS011;67235;45.638;11.714;2023-08-21T08:59:51;9.80;;;7.00;;
78027;SDS011;67235;45.638;11.714;2023-08-21T09:02:17;9.38;;;7.40;;
78027;SDS011;67235;45.638;11.714;2023-08-21T09:04:43;10.40;;;7.20;;
78027;SDS011;67235;45.638;11.714;2023-08-21T09:07:09;8.70;;;7.57;;
78027;SDS011;67235;45.638;11.714;2023-08-21T09:09:37;9.10;;;7.43;;
78027;SDS011;67235;45.638;11.714;2023-08-21T09:12:13;9.32;;;7.55;;
78027;SDS011;67235;45.638;11.714;2023-08-21T09:14:40;10.07;;;7.75;;
78027;SDS011;67235;45.638;11.714;2023-08-21T09:17:07;9.40;;;7.47;;
78027;SDS011;67235;45.638;11.714;2023-08-21T09:19:33;8.95;;;7.88;;
78027;SDS011;67235;45.638;11.714;2023-08-21T09:22:13;8.73;;;7.17;;
78027;SDS011;67235;45.638;11.714;2023-08-21T09:24:41;9.15;;;7.13;;
78027;SDS011;67235;45.638;11.714;2023-08-21T09:27:38;8.27;;;7.22;;
78027;SDS011;67235;45.638;11.714;2023-08-21T09:30:05;9.57;;;7.85;;
78027;SDS011;67235;45.638;11.714;2023-08-21T09:35:25;9.83;;;8.10;;
78027;SDS011;67235;45.638;11.714;2023-08-21T09:37:51;10.75;;;8.38;;
78027;SDS011;67235;45.638;11.714;2023-08-21T09:40:21;9.52;;;8.02;;
78027;SDS011;67235;45.638;11.714;2023-08-21T09:42:53;11.80;;;8.52;;
78027;SDS011;67235;45.638;11.714;2023-08-21T09:45:24;10.43;;;8.45;;
78027;SDS011;67235;45.638;11.714;2023-08-21T09:47:52;10.67;;;8.13;;
78027;SDS011;67235;45.638;11.714;2023-08-21T09:50:19;10.05;;;7.85;;
78027;SDS011;67235;45.638;11.714;2023-08-21T09:52:45;10.55;;;8.30;;
78027;SDS011;67235;45.638;11.714;2023-08-21T09:55:14;10.93;;;8.10;;
78027;SDS011;67235;45.638;11.714;2023-08-21T09:57:40;10.30;;;8.40;;
78027;SDS011;67235;45.638;11.714;2023-08-21T10:00:07;10.93;;;7.83;;
78027;SDS011;67235;45.638;11.714;2023-08-21T10:02:43;11.02;;;8.20;;
78027;SDS011;67235;45.638;11.714;2023-08-21T10:05:16;10.65;;;8.48;;
78027;SDS011;67235;45.638;11.714;2023-08-21T10:07:47;10.10;;;7.93;;
78027;SDS011;67235;45.638;11.714;2023-08-21T10:10:14;12.05;;;7.65;;
78027;SDS011;67235;45.638;11.714;2023-08-21T10:12:40;10.27;;;7.90;;
78027;SDS011;67235;45.638;11.714;2023-08-21T10:15:06;11.65;;;7.57;;
78027;SDS011;67235;45.638;11.714;2023-08-21T10:17:36;9.63;;;8.43;;
78027;SDS011;67235;45.638;11.714;2023-08-21T10:20:06;9.38;;;8.15;;
78027;SDS011;67235;45.638;11.714;2023-08-21T10:22:39;9.18;;;7.97;;
78027;SDS011;67235;45.638;11.714;2023-08-21T10:25:18;10.07;;;7.83;;
78027;SDS011;67235;45.638;11.714;2023-08-21T10:27:56;9.63;;;7.47;;
78027;SDS011;67235;45.638;11.714;2023-08-21T10:30:28;10.15;;;7.82;;
78027;SDS011;67235;45.638;11.714;2023-08-21T10:32:56;10.00;;;7.50;;
78027;SDS011;67235;45.638;11.714;2023-08-21T10:35:32;9.85;;;7.03;;
78027;SDS011;67235;45.638;11.714;2023-08-21T10:38:12;9.67;;;6.27;;
78027;SDS011;67235;45.638;11.714;2023-08-21T10:41:25;8.95;;;6.53;;
78027;SDS011;67235;45.638;11.714;2023-08-21T10:46:11;6.97;;;5.85;;
78027;SDS011;67235;45.638;11.714;2023-08-21T10:48:37;8.68;;;5.97;;
78027;SDS011;67235;45.638;11.714;2023-08-21T10:51:05;9.27;;;6.27;;
78027;SDS011;67235;45.638;11.714;2023-08-21T10:53:33;8.48;;;5.88;;
78027;SDS011;67235;45.638;11.714;2023-08-21T10:56:03;6.85;;;5.45;;
78027;SDS011;67235;45.638;11.714;2023-08-21T10:58:42;8.57;;;6.07;;
78027;SDS011;67235;45.638;11.714;2023-08-21T11:01:16;8.07;;;5.63;;
78027;SDS011;67235;45.638;11.714;2023-08-21T11:03:45;7.60;;;5.93;;
78027;SDS011;67235;45.638;11.714;2023-08-21T11:06:12;8.30;;;6.30;;
78027;SDS011;67235;45.638;11.714;2023-08-21T11:08:37;8.15;;;6.00;;
78027;SDS011;67235;45.638;11.714;2023-08-21T11:11:04;9.70;;;5.97;;
78027;SDS011;67235;45.638;11.714;2023-08-21T11:13:31;8.17;;;6.23;;
78027;SDS011;67235;45.638;11.714;2023-08-21T11:15:58;8.10;;;6.10;;
78027;SDS011;67235;45.638;11.714;2023-08-21T11:18:37;8.05;;;6.00;;
78027;SDS011;67235;45.638;11.714;2023-08-21T11:21:04;7.80;;;6.15;;
78027;SDS011;67235;45.638;11.714;2023-08-21T11:23:38;7.95;;;5.80;;
78027;SDS011;67235;45.638;11.714;2023-08-21T11:26:04;8.20;;;6.37;;
78027;SDS011;67235;45.638;11.714;2023-08-21T11:28:33;8.00;;;5.93;;
78027;SDS011;67235;45.638;11.714;2023-08-21T11:31:00;8.13;;;6.20;;
78027;SDS011;67235;45.638;11.714;2023-08-21T11:33:27;8.63;;;6.03;;
78027;SDS011;67235;45.638;11.714;2023-08-21T11:35:53;9.13;;;5.90;;
78027;SDS011;67235;45.638;11.714;2023-08-21T11:38:23;7.57;;;5.78;;
78027;SDS011;67235;45.638;11.714;2023-08-21T11:40:58;7.53;;;5.45;;
78027;SDS011;67235;45.638;11.714;2023-08-21T11:43:35;8.07;;;5.78;;
78027;SDS011;67235;45.638;11.714;2023-08-21T11:46:05;7.95;;;5.82;;
78027;SDS011;67235;45.638;11.714;2023-08-21T11:48:32;7.70;;;5.83;;
78027;SDS011;67235;45.638;11.714;2023-08-21T11:50:59;9.52;;;5.88;;
78027;SDS011;67235;45.638;11.714;2023-08-21T11:53:32;7.30;;;5.60;;
78027;SDS011;67235;45.638;11.714;2023-08-21T11:56:02;7.65;;;6.05;;
78027;SDS011;67235;45.638;11.714;2023-08-21T11:58:33;7.45;;;5.80;;
78027;SDS011;67235;45.638;11.714;2023-08-21T12:01:03;8.23;;;5.87;;
78027;SDS011;67235;45.638;11.714;2023-08-21T12:03:30;7.53;;;5.63;;
78027;SDS011;67235;45.638;11.714;2023-08-21T12:06:03;7.38;;;5.80;;
78027;SDS011;67235;45.638;11.714;2023-08-21T12:08:36;6.93;;;5.70;;
78027;SDS011;67235;45.638;11.714;2023-08-21T12:11:02;7.10;;;5.60;;
78027;SDS011;67235;45.638;11.714;2023-08-21T12:13:29;8.97;;;5.87;;
78027;SDS011;67235;45.638;11.714;2023-08-21T12:15:55;7.88;;;5.72;;
78027;SDS011;67235;45.638;11.714;2023-08-21T12:18:21;7.68;;;5.55;;
78027;SDS011;67235;45.638;11.714;2023-08-21T12:20:48;8.90;;;6.07;;
78027;SDS011;67235;45.638;11.714;2023-08-21T12:23:14;7.73;;;6.03;;
78027;SDS011;67235;45.638;11.714;2023-08-21T12:25:40;7.70;;;5.60;;
78027;SDS011;67235;45.638;11.714;2023-08-21T12:28:07;9.82;;;6.28;;
78027;SDS011;67235;45.638;11.714;2023-08-21T12:30:37;8.15;;;5.72;;
78027;SDS011;67235;45.638;11.714;2023-08-21T12:33:04;9.03;;;6.03;;
78027;SDS011;67235;45.638;11.714;2023-08-21T12:35:33;8.85;;;6.03;;
78027;SDS011;67235;45.638;11.714;2023-08-21T12:38:09;7.72;;;5.78;;
78027;SDS011;67235;45.638;11.714;2023-08-21T12:40:37;8.93;;;6.25;;
78027;SDS011;67235;45.638;11.714;2023-08-21T12:43:04;7.60;;;5.37;;
78027;SDS011;67235;45.638;11.714;2023-08-21T12:45:30;7.50;;;5.43;;
78027;SDS011;67235;45.638;11.714;2023-08-21T12:47:58;9.70;;;6.38;;
78027;SDS011;67235;45.638;11.714;2023-08-21T12:50:24;7.35;;;5.85;;
78027;SDS011;67235;45.638;11.714;2023-08-21T12:52:50;10.00;;;5.70;;
78027;SDS011;67235;45.638;11.714;2023-08-21T12:55:16;7.25;;;5.68;;
78027;SDS011;67235;45.638;11.714;2023-08-21T12:57:42;7.80;;;5.95;;
78027;SDS011;67235;45.638;11.714;2023-08-21T13:00:08;9.77;;;6.80;;
78027;SDS011;67235;45.638;11.714;2023-08-21T13:02:35;8.20;;;6.50;;
78027;SDS011;67235;45.638;11.714;2023-08-21T13:05:01;8.68;;;6.38;;
78027;SDS011;67235;45.638;11.714;2023-08-21T13:07:29;8.93;;;6.60;;
78027;SDS011;67235;45.638;11.714;2023-08-21T13:09:55;7.83;;;6.00;;
78027;SDS011;67235;45.638;11.714;2023-08-21T13:12:26;9.07;;;6.47;;
78027;SDS011;67235;45.638;11.714;2023-08-21T13:15:01;8.50;;;6.78;;
78027;SDS011;67235;45.638;11.714;2023-08-21T13:17:29;10.25;;;6.25;;
78027;SDS011;67235;45.638;11.714;2023-08-21T13:19:55;9.48;;;6.63;;
78027;SDS011;67235;45.638;11.714;2023-08-21T13:22:21;8.83;;;6.47;;
78027;SDS011;67235;45.638;11.714;2023-08-21T13:24:48;8.75;;;6.47;;
78027;SDS011;67235;45.638;11.714;2023-08-21T13:27:16;7.78;;;6.22;;
78027;SDS011;67235;45.638;11.714;2023-08-21T13:29:45;8.45;;;6.35;;
78027;SDS011;67235;45.638;11.714;2023-08-21T13:32:12;8.05;;;6.32;;
78027;SDS011;67235;45.638;11.714;2023-08-21T13:34:38;9.73;;;6.40;;
78027;SDS011;67235;45.638;11.714;2023-08-21T13:37:07;9.00;;;6.55;;
78027;SDS011;67235;45.638;11.714;2023-08-21T13:39:38;9.73;;;7.03;;
78027;SDS011;67235;45.638;11.714;2023-08-21T13:42:05;8.23;;;6.60;;
78027;SDS011;67235;45.638;11.714;2023-08-21T13:44:35;9.90;;;6.25;;
78027;SDS011;67235;45.638;11.714;2023-08-21T13:47:08;9.40;;;6.33;;
78027;SDS011;67235;45.638;11.714;2023-08-21T13:49:35;10.18;;;6.90;;
78027;SDS011;67235;45.638;11.714;2023-08-21T13:52:02;9.07;;;6.95;;
78027;SDS011;67235;45.638;11.714;2023-08-21T13:54:31;9.10;;;6.60;;
78027;SDS011;67235;45.638;11.714;2023-08-21T13:56:59;9.70;;;6.78;;
78027;SDS011;67235;45.638;11.714;2023-08-21T13:59:28;9.67;;;6.90;;
78027;SDS011;67235;45.638;11.714;2023-08-21T14:01:56;9.48;;;6.63;;
78027;SDS011;67235;45.638;11.714;2023-08-21T14:04:22;8.85;;;6.43;;
78027;SDS011;67235;45.638;11.714;2023-08-21T14:06:49;8.98;;;6.95;;
78027;SDS011;67235;45.638;11.714;2023-08-21T14:09:15;8.93;;;6.60;;
78027;SDS011;67235;45.638;11.714;2023-08-21T14:11:41;8.87;;;6.77;;
78027;SDS011;67235;45.638;11.714;2023-08-21T14:14:08;9.85;;;7.32;;
78027;SDS011;67235;45.638;11.714;2023-08-21T14:16:34;9.85;;;7.10;;
78027;SDS011;67235;45.638;11.714;2023-08-21T14:19:00;9.07;;;6.78;;
78027;SDS011;67235;45.638;11.714;2023-08-21T14:21:26;8.97;;;6.97;;
78027;SDS011;67235;45.638;11.714;2023-08-21T14:23:52;8.80;;;6.78;;
78027;SDS011;67235;45.638;11.714;2023-08-21T14:26:18;8.50;;;6.55;;
78027;SDS011;67235;45.638;11.714;2023-08-21T14:28:44;10.60;;;7.33;;
78027;SDS011;67235;45.638;11.714;2023-08-21T14:31:15;8.48;;;6.78;;